CST,Max TemperatureF,Mean TemperatureF,Min TemperatureF,Max Dew PointF,MeanDew PointF,Min DewpointF,Max Humidity, Mean Humidity, Min Humidity, Max Sea Level PressureIn, Mean Sea Level PressureIn, Min Sea Level PressureIn, Max VisibilityMiles, Mean VisibilityMiles, Min VisibilityMiles, Max Wind SpeedMPH, Mean Wind SpeedMPH, Max Gust SpeedMPH,PrecipitationIn, CloudCover, Events, WindDirDegrees
2012-1-1,39,30,20,22,11,0,75,49,23,30.70,30.51,30.22,10,10,10,36,16,43,0.00,0,,318
2012-1-2,37,22,6,9,5,1,73,50,26,30.74,30.63,30.40,10,10,10,14,6,18,0.00,0,,300
2012-1-3,60,40,20,26,21,10,81,55,28,30.35,30.12,29.96,10,10,10,20,9,25,0.00,0,,272
2012-1-4,58,42,25,27,23,18,88,58,28,30.33,30.22,30.14,10,10,10,21,7,25,0.00,0,,286
2012-1-5,69,47,24,29,23,19,81,50,19,30.14,29.93,29.75,10,10,10,16,5,20,0.00,0,,295
2012-1-6,51,35,18,24,18,12,73,47,21,30.15,29.99,29.73,10,10,10,25,12,33,0.00,0,,320
2012-1-7,40,28,15,26,17,10,88,63,37,30.31,30.23,30.14,10,10,10,8,3,9,0.00,5,,306
2012-1-8,43,33,22,30,25,20,96,75,53,30.35,30.29,30.22,10,10,10,17,5,22,0.00,4,,209
2012-1-9,55,35,14,27,22,12,92,62,32,30.23,30.16,30.09,10,10,10,14,3,16,0.00,0,,306
2012-1-10,61,40,19,29,24,17,92,61,29,30.06,29.90,29.68,10,10,10,16,5,18,0.00,0,,234
2012-1-11,39,26,12,32,17,1,88,71,54,30.18,29.97,29.65,10,9,2,43,26,55,T,6,Snow,336
2012-1-12,22,14,6,5,-5,-18,69,43,16,30.17,30.12,30.00,10,10,7,32,20,39,T,3,Snow,321
2012-1-13,42,24,6,23,11,-4,88,62,36,30.13,30.02,29.81,10,10,10,25,7,33,0.00,3,,279
2012-1-14,45,34,23,25,16,7,74,48,22,30.20,30.09,29.95,10,10,10,32,13,43,0.00,2,,295
2012-1-15,70,45,19,23,16,6,77,43,8,29.95,29.79,29.64,10,10,10,18,7,24,0.00,0,,182
2012-1-16,34,24,13,22,12,5,84,67,50,30.13,29.90,29.76,10,10,8,28,17,36,T,3,Snow,357
2012-1-17,25,15,5,9,4,0,84,62,40,30.45,30.31,30.07,10,10,4,25,11,31,T,2,Snow,292
2012-1-18,48,27,6,12,6,-4,80,50,19,30.19,29.97,29.81,10,10,10,24,12,30,0.00,0,,324
2012-1-19,15,7,-1,-2,-6,-10,72,58,44,30.25,30.12,30.02,10,10,10,18,10,23,T,2,,65
2012-1-20,26,19,11,7,4,0,73,58,42,30.28,30.06,29.86,10,10,10,22,9,28,T,3,,63
2012-1-21,31,19,6,16,8,1,80,62,43,30.24,29.91,29.52,10,10,10,28,14,37,0.00,2,,161
2012-1-22,37,25,13,34,27,12,96,78,59,29.72,29.50,29.35,10,5,0,31,12,39,0.13,7,Fog-Rain-Snow,332
2012-1-23,46,32,17,28,21,15,92,65,37,30.06,29.90,29.74,10,10,10,33,11,44,0.00,1,,311
2012-1-24,35,24,12,25,19,12,100,82,64,30.27,30.14,30.00,10,8,2,9,2,20,0.00,2,,111
2012-1-25,53,36,19,29,23,18,96,60,24,30.26,30.08,29.89,10,10,6,17,7,21,0.00,2,,247
2012-1-26,49,35,20,35,22,15,81,55,28,30.06,29.98,29.88,10,10,10,32,10,38,T,1,Rain,310
2012-1-27,43,34,24,26,19,13,75,58,40,30.30,30.04,29.82,10,10,10,31,12,39,T,5,,321
2012-1-28,44,30,15,15,9,2,80,48,16,30.30,30.24,30.19,10,10,10,29,14,37,0.00,0,,272
2012-1-29,53,39,25,20,14,9,63,42,21,30.23,30.08,29.87,10,10,10,16,9,22,0.00,6,,225
2012-1-30,68,50,31,23,19,16,56,36,16,29.86,29.76,29.67,10,10,10,22,8,28,0.00,0,,251
2012-1-31,57,39,20,28,21,14,63,43,23,30.12,29.93,29.75,10,10,10,25,10,30,0.00,0,,307